createdAt,value
2023-06-02T00:01:35.058Z,6.10
2023-06-02T00:04:03.709Z,5.30
2023-06-02T00:06:35.748Z,6.00
2023-06-02T00:09:06.429Z,5.80
2023-06-02T00:11:38.104Z,6.20
2023-06-02T00:14:07.010Z,6.10
2023-06-02T00:16:43.049Z,6.20
2023-06-02T00:19:13.775Z,6.60
2023-06-02T00:21:42.660Z,6.30
2023-06-02T00:24:09.879Z,6.20
2023-06-02T00:26:36.689Z,6.60
2023-06-02T00:29:03.756Z,4.20
2023-06-02T00:31:31.198Z,6.10
2023-06-02T00:33:58.092Z,6.10
2023-06-02T00:36:24.947Z,6.50
2023-06-02T00:38:51.747Z,5.90
2023-06-02T00:41:18.737Z,5.80
2023-06-02T00:43:45.557Z,7.40
2023-06-02T00:46:12.527Z,6.90
2023-06-02T00:48:39.993Z,8.40
2023-06-02T00:51:07.195Z,8.80
2023-06-02T00:53:34.101Z,10.20
2023-06-02T00:56:02.020Z,9.90
2023-06-02T00:58:30.034Z,10.30
2023-06-02T01:00:57.024Z,9.80
2023-06-02T01:03:26.075Z,9.50
2023-06-02T01:05:57.024Z,9.60
2023-06-02T01:08:25.976Z,9.50
2023-06-02T01:10:53.720Z,8.40
2023-06-02T01:13:20.972Z,9.10
2023-06-02T01:15:47.763Z,8.50
2023-06-02T01:18:18.058Z,8.00
2023-06-02T01:20:50.605Z,7.60
2023-06-02T01:23:24.813Z,7.10
2023-06-02T01:25:54.791Z,7.10
2023-06-02T01:28:22.376Z,6.70
2023-06-02T01:31:01.265Z,6.70
2023-06-02T01:33:34.526Z,6.90
2023-06-02T01:36:02.101Z,6.00
2023-06-02T01:38:32.124Z,6.20
2023-06-02T01:41:04.229Z,6.10
2023-06-02T01:46:02.112Z,6.40
2023-06-02T01:48:32.727Z,6.40
2023-06-02T01:50:59.531Z,6.30
2023-06-02T01:53:27.986Z,6.60
2023-06-02T01:55:56.137Z,6.60
2023-06-02T01:58:23.469Z,7.00
2023-06-02T02:00:50.386Z,6.90
2023-06-02T02:03:19.236Z,6.60
2023-06-02T02:05:46.426Z,7.20
2023-06-02T02:08:13.843Z,6.60
2023-06-02T02:10:40.980Z,6.40
2023-06-02T02:13:07.753Z,7.30
2023-06-02T02:15:35.526Z,6.30
2023-06-02T02:18:04.479Z,6.50
2023-06-02T02:20:32.221Z,5.80
2023-06-02T02:22:59.411Z,5.80
2023-06-02T02:25:26.225Z,6.60
2023-06-02T02:27:53.011Z,6.30
2023-06-02T02:30:19.792Z,7.00
2023-06-02T02:32:48.323Z,6.40
2023-06-02T02:35:15.312Z,6.10
2023-06-02T02:37:47.401Z,6.50
2023-06-02T02:40:24.178Z,6.20
2023-06-02T02:42:51.000Z,6.40
2023-06-02T02:45:17.915Z,6.00
2023-06-02T02:47:46.056Z,6.00
2023-06-02T02:50:13.181Z,5.60
2023-06-02T02:52:41.606Z,6.00
2023-06-02T02:55:08.736Z,6.40
2023-06-02T02:57:35.596Z,6.60
2023-06-02T03:00:02.949Z,6.80
2023-06-02T03:02:32.516Z,5.40
2023-06-02T03:05:03.513Z,6.00
2023-06-02T03:07:31.371Z,6.30
2023-06-02T03:09:58.316Z,6.50
2023-06-02T03:12:25.590Z,6.40
2023-06-02T03:14:53.535Z,6.10
2023-06-02T03:17:21.426Z,6.00
2023-06-02T03:19:48.270Z,6.00
2023-06-02T03:22:15.347Z,5.70
2023-06-02T03:24:42.753Z,5.90
2023-06-02T03:27:14.924Z,6.30
2023-06-02T03:29:45.624Z,5.50
2023-06-02T03:32:14.461Z,6.70
2023-06-02T03:34:41.436Z,6.50
2023-06-02T03:37:09.052Z,5.60
2023-06-02T03:39:36.106Z,6.10
2023-06-02T03:42:03.085Z,6.20
2023-06-02T03:44:30.105Z,5.50
2023-06-02T03:46:57.480Z,5.20
2023-06-02T03:49:28.373Z,5.40
2023-06-02T03:51:55.589Z,5.10
2023-06-02T03:54:22.401Z,5.50
2023-06-02T03:56:50.905Z,6.00
2023-06-02T03:59:17.732Z,5.10
2023-06-02T04:01:44.751Z,5.70
2023-06-02T04:04:13.424Z,5.30
2023-06-02T04:06:44.497Z,4.20
2023-06-02T04:09:13.364Z,4.80
2023-06-02T04:11:41.988Z,4.80
2023-06-02T04:14:09.822Z,5.80
2023-06-02T04:16:37.754Z,5.50
2023-06-02T04:19:06.746Z,5.60
2023-06-02T04:21:34.290Z,5.40
2023-06-02T04:24:01.251Z,5.60
2023-06-02T04:26:28.162Z,4.90
2023-06-02T04:28:55.001Z,5.10
2023-06-02T04:31:28.119Z,5.40
2023-06-02T04:33:57.483Z,4.90
2023-06-02T04:36:24.610Z,4.80
2023-06-02T04:38:52.414Z,5.20
2023-06-02T04:41:19.147Z,5.40
2023-06-02T04:43:46.026Z,5.40
2023-06-02T04:46:13.484Z,5.50
2023-06-02T04:48:43.644Z,5.60
2023-06-02T04:51:10.555Z,5.40
2023-06-02T04:53:39.125Z,5.70
2023-06-02T04:56:07.088Z,5.00
2023-06-02T04:58:34.736Z,5.40
2023-06-02T05:01:03.524Z,5.80
2023-06-02T05:03:31.043Z,5.00
2023-06-02T05:05:58.029Z,5.20
2023-06-02T05:08:25.128Z,5.50
2023-06-02T05:10:51.959Z,6.40
2023-06-02T05:13:19.150Z,5.20
2023-06-02T05:15:47.688Z,5.10
2023-06-02T05:18:15.989Z,5.00
2023-06-02T05:20:44.152Z,6.20
2023-06-02T05:23:11.411Z,5.90
2023-06-02T05:25:40.292Z,6.20
2023-06-02T05:28:07.133Z,5.10
2023-06-02T05:30:35.446Z,5.80
2023-06-02T05:33:02.403Z,5.20
2023-06-02T05:35:29.320Z,5.20
2023-06-02T05:37:57.196Z,5.50
2023-06-02T05:40:24.198Z,5.80
2023-06-02T05:42:51.411Z,5.70
2023-06-02T05:45:19.147Z,5.40
2023-06-02T05:47:49.534Z,5.70
2023-06-02T05:50:17.348Z,5.80
2023-06-02T05:52:44.297Z,5.50
2023-06-02T05:55:11.311Z,5.60
2023-06-02T05:57:38.704Z,5.60
2023-06-02T06:00:09.433Z,6.10
2023-06-02T06:02:42.023Z,5.70
2023-06-02T06:05:10.766Z,5.80
2023-06-02T06:07:38.226Z,5.60
2023-06-02T06:10:05.261Z,5.40
2023-06-02T06:12:32.456Z,6.00
2023-06-02T06:14:59.330Z,5.90
2023-06-02T06:17:26.137Z,5.60
2023-06-02T06:19:52.884Z,5.70
2023-06-02T06:22:19.679Z,5.60
2023-06-02T06:24:46.550Z,5.60
2023-06-02T06:27:13.689Z,5.70
2023-06-02T06:29:40.569Z,5.30
2023-06-02T06:32:07.998Z,5.70
2023-06-02T06:34:35.123Z,6.30
2023-06-02T06:37:01.966Z,5.60
2023-06-02T06:39:28.952Z,5.90
2023-06-02T06:41:55.702Z,6.10
2023-06-02T06:44:31.903Z,6.60
2023-06-02T06:46:59.457Z,6.60
2023-06-02T06:49:26.656Z,6.60
2023-06-02T06:51:53.395Z,6.00
2023-06-02T06:54:20.583Z,6.00
2023-06-02T06:56:47.406Z,6.20
2023-06-02T06:59:14.380Z,6.20
2023-06-02T07:01:41.331Z,6.10
2023-06-02T07:04:08.641Z,5.60
2023-06-02T07:06:37.943Z,5.50
2023-06-02T07:09:05.021Z,5.90
2023-06-02T07:11:31.788Z,5.60
2023-06-02T07:14:14.596Z,6.20
2023-06-02T07:16:47.292Z,5.80
2023-06-02T07:19:14.304Z,6.10
2023-06-02T07:21:41.315Z,5.50
2023-06-02T07:24:08.201Z,5.40
2023-06-02T07:26:35.094Z,5.50
2023-06-02T07:29:01.906Z,5.80
2023-06-02T07:31:28.794Z,5.60
2023-06-02T07:33:55.628Z,5.40
2023-06-02T07:36:22.562Z,5.50
2023-06-02T07:38:49.358Z,5.40
2023-06-02T07:41:16.216Z,5.90
2023-06-02T07:43:43.009Z,5.80
2023-06-02T07:46:10.304Z,5.80
2023-06-02T07:48:37.511Z,5.30
2023-06-02T07:51:04.456Z,5.60
2023-06-02T07:53:31.515Z,4.90
2023-06-02T07:55:58.420Z,5.10
2023-06-02T07:58:28.923Z,5.80
2023-06-02T08:00:55.915Z,5.90
2023-06-02T08:03:22.934Z,5.10
2023-06-02T08:05:50.028Z,4.90
2023-06-02T08:08:16.813Z,5.80
2023-06-02T08:10:44.114Z,5.90
2023-06-02T08:13:12.407Z,5.70
2023-06-02T08:15:39.437Z,5.40
2023-06-02T08:22:27.372Z,6.30
2023-06-02T08:24:56.431Z,6.00
2023-06-02T08:27:23.314Z,5.80
2023-06-02T08:29:54.644Z,6.50
2023-06-02T08:32:26.827Z,6.00
2023-06-02T08:34:57.961Z,5.90
2023-06-02T08:37:26.064Z,6.70
2023-06-02T08:39:52.825Z,5.60
2023-06-02T08:42:21.342Z,6.00
2023-06-02T08:44:49.229Z,5.60
2023-06-02T08:47:19.429Z,5.40
2023-06-02T08:49:47.352Z,6.00
2023-06-02T08:52:20.085Z,7.30
2023-06-02T08:54:47.460Z,7.20
2023-06-02T08:57:17.403Z,6.00
2023-06-02T08:59:47.836Z,6.20
2023-06-02T09:02:16.529Z,6.40
2023-06-02T09:04:44.165Z,5.60
2023-06-02T09:07:14.083Z,6.20
2023-06-02T09:09:44.802Z,6.00
2023-06-02T09:12:12.100Z,5.90
2023-06-02T09:14:40.233Z,6.20
2023-06-02T09:17:39.791Z,5.90
2023-06-02T09:20:11.970Z,6.20
2023-06-02T09:22:59.061Z,6.50
2023-06-02T09:25:28.532Z,6.60
2023-06-02T09:27:57.521Z,6.20
2023-06-02T09:30:26.119Z,7.00
2023-06-02T09:33:01.157Z,7.10
2023-06-02T09:35:44.309Z,7.00
2023-06-02T09:38:13.548Z,5.80
2023-06-02T09:40:42.284Z,6.10
2023-06-02T09:43:11.569Z,6.80
2023-06-02T09:45:50.832Z,7.00
2023-06-02T09:52:24.744Z,6.60
2023-06-02T09:54:51.498Z,7.70
2023-06-02T09:57:18.550Z,8.90
2023-06-02T09:59:46.694Z,7.10
2023-06-02T10:02:14.804Z,6.40
2023-06-02T10:04:41.741Z,7.20
2023-06-02T10:07:21.971Z,6.50
2023-06-02T10:09:57.874Z,7.50
2023-06-02T10:12:52.514Z,7.30
2023-06-02T10:15:50.634Z,8.30
2023-06-02T10:18:38.971Z,8.10
2023-06-02T10:21:25.491Z,7.10
2023-06-02T10:28:13.968Z,7.90
2023-06-02T10:30:41.026Z,7.40
2023-06-02T10:33:09.406Z,8.20
2023-06-02T10:36:02.534Z,8.20
2023-06-02T10:38:33.278Z,6.00
2023-06-02T10:41:01.322Z,4.90
2023-06-02T10:43:28.472Z,5.10
2023-06-02T10:46:22.425Z,4.30
2023-06-02T10:48:50.626Z,5.30
2023-06-02T10:51:18.115Z,4.90
2023-06-02T10:54:00.352Z,5.60
2023-06-02T10:56:36.382Z,5.30
2023-06-02T10:59:04.453Z,5.10
2023-06-02T11:01:57.523Z,5.40
2023-06-02T11:04:34.863Z,5.00
2023-06-02T11:07:19.796Z,4.50
2023-06-02T11:09:48.888Z,5.10
2023-06-02T11:12:16.636Z,4.70
2023-06-02T11:15:02.436Z,4.50
2023-06-02T11:17:31.825Z,4.30
2023-06-02T11:19:59.367Z,4.80
2023-06-02T11:22:28.940Z,4.10
2023-06-02T11:24:56.669Z,4.30
2023-06-02T11:27:38.137Z,5.10
2023-06-02T11:30:12.130Z,4.70
2023-06-02T11:32:40.102Z,4.60
2023-06-02T11:35:09.093Z,5.00
2023-06-02T11:37:42.151Z,5.10
2023-06-02T11:40:11.825Z,4.90
2023-06-02T11:42:44.732Z,4.80
2023-06-02T11:45:26.244Z,4.50
2023-06-02T11:48:02.766Z,4.80
2023-06-02T11:50:31.004Z,4.50
2023-06-02T11:52:58.481Z,4.70
2023-06-02T11:55:35.919Z,5.60
2023-06-02T11:58:28.060Z,5.50
2023-06-02T12:01:06.691Z,5.50
2023-06-02T12:03:34.092Z,5.00
2023-06-02T12:06:10.183Z,5.50
2023-06-02T12:08:37.071Z,4.00
2023-06-02T12:11:04.534Z,5.00
2023-06-02T12:13:32.807Z,6.00
2023-06-02T12:16:21.090Z,5.50
2023-06-02T12:18:49.193Z,6.00
2023-06-02T12:21:25.189Z,5.20
2023-06-02T12:23:53.396Z,5.70
2023-06-02T12:26:20.614Z,5.80
2023-06-02T12:28:47.865Z,5.20
2023-06-02T12:31:19.992Z,5.50
2023-06-02T12:33:46.981Z,5.30
2023-06-02T12:36:14.425Z,5.70
2023-06-02T12:38:42.518Z,5.40
2023-06-02T12:41:13.156Z,5.80
2023-06-02T12:43:42.238Z,6.00
2023-06-02T12:46:12.816Z,6.40
2023-06-02T12:48:40.885Z,6.10
2023-06-02T12:51:08.776Z,6.00
2023-06-02T12:53:36.630Z,5.90
2023-06-02T12:56:05.277Z,7.10
2023-06-02T12:58:32.359Z,5.70
2023-06-02T13:00:59.135Z,6.60
2023-06-02T13:03:26.295Z,6.70
2023-06-02T13:05:58.299Z,6.50
2023-06-02T13:12:19.178Z,6.10
2023-06-02T13:14:45.945Z,5.80
2023-06-02T13:17:13.200Z,5.90
2023-06-02T13:19:42.748Z,6.70
2023-06-02T13:22:09.718Z,5.90
2023-06-02T13:24:36.860Z,5.70
2023-06-02T13:27:04.164Z,5.80
2023-06-02T13:29:31.048Z,6.10
2023-06-02T13:31:58.879Z,6.40
2023-06-02T13:34:25.790Z,6.70
2023-06-02T13:36:52.563Z,6.90
2023-06-02T13:39:19.438Z,6.50
2023-06-02T13:41:46.543Z,6.30
2023-06-02T13:44:21.006Z,6.80
2023-06-02T13:46:48.695Z,6.60
2023-06-02T13:49:17.995Z,6.00
2023-06-02T13:51:47.253Z,6.00
2023-06-02T13:54:15.339Z,6.60
2023-06-02T13:56:42.065Z,6.60
2023-06-02T14:03:23.139Z,5.90
2023-06-02T14:05:50.997Z,6.50
2023-06-02T14:08:18.854Z,6.80
2023-06-02T14:10:45.814Z,5.50
2023-06-02T14:13:12.731Z,6.70
2023-06-02T14:15:39.664Z,5.50
2023-06-02T14:22:26.314Z,5.80
2023-06-02T14:24:53.104Z,5.90
2023-06-02T14:27:19.821Z,5.20
2023-06-02T14:29:46.646Z,6.00
2023-06-02T14:32:13.465Z,5.50
2023-06-02T14:34:40.393Z,4.90
2023-06-02T14:37:09.136Z,5.20
2023-06-02T14:39:37.268Z,5.50
2023-06-02T14:42:04.389Z,5.60
2023-06-02T14:44:31.444Z,5.60
2023-06-02T14:46:58.293Z,5.20
2023-06-02T14:49:25.156Z,6.00
2023-06-02T14:51:52.009Z,5.20
2023-06-02T14:58:26.994Z,5.60
2023-06-02T15:00:55.313Z,5.40
2023-06-02T15:03:22.326Z,6.10
2023-06-02T15:05:49.262Z,6.20
2023-06-02T15:08:16.217Z,5.40
2023-06-02T15:10:43.446Z,5.40
2023-06-02T15:13:10.393Z,5.20
2023-06-02T15:15:37.303Z,5.60
2023-06-02T15:18:04.669Z,4.90
2023-06-02T15:20:31.717Z,5.60
2023-06-02T15:22:58.560Z,5.00
2023-06-02T15:25:25.434Z,5.90
2023-06-02T15:27:52.209Z,4.70
2023-06-02T15:30:19.072Z,5.30
2023-06-02T15:32:45.994Z,5.80
2023-06-02T15:35:13.879Z,5.30
2023-06-02T15:37:40.830Z,5.40
2023-06-02T15:40:08.669Z,5.80
2023-06-02T15:42:35.429Z,5.20
2023-06-02T15:45:03.490Z,5.60
2023-06-02T15:47:30.258Z,5.80
2023-06-02T15:50:00.615Z,4.90
2023-06-02T15:52:27.322Z,5.50
2023-06-02T15:54:54.615Z,4.80
2023-06-02T15:57:21.967Z,5.00
2023-06-02T15:59:48.730Z,4.90
2023-06-02T16:02:15.528Z,5.70
2023-06-02T16:04:42.422Z,5.20
2023-06-02T16:07:09.282Z,4.80
2023-06-02T16:09:36.207Z,5.40
2023-06-02T16:12:03.056Z,4.40
2023-06-02T16:14:29.899Z,4.60
2023-06-02T16:16:57.720Z,4.60
2023-06-02T16:19:24.676Z,4.70
2023-06-02T16:21:51.461Z,4.30
2023-06-02T16:24:18.269Z,4.80
2023-06-02T16:26:45.102Z,5.00
2023-06-02T16:29:13.319Z,4.70
2023-06-02T16:31:40.236Z,4.50
2023-06-02T16:34:07.073Z,4.30
2023-06-02T16:36:34.104Z,4.10
2023-06-02T16:39:00.968Z,4.00
2023-06-02T16:41:28.261Z,3.90
2023-06-02T16:43:55.150Z,4.00
2023-06-02T16:46:22.054Z,4.10
2023-06-02T16:48:48.931Z,4.20
2023-06-02T16:51:15.682Z,4.10
2023-06-02T16:53:42.555Z,4.20
2023-06-02T16:56:09.280Z,4.30
2023-06-02T16:58:36.838Z,4.20
2023-06-02T17:01:04.216Z,4.60
2023-06-02T17:07:58.241Z,4.90
2023-06-02T17:10:25.090Z,4.90
2023-06-02T17:12:52.250Z,4.70
2023-06-02T17:15:19.280Z,4.80
2023-06-02T17:20:38.254Z,5.30
2023-06-02T17:23:05.055Z,4.70
2023-06-02T17:25:31.885Z,5.00
2023-06-02T17:27:58.878Z,4.80
2023-06-02T17:30:25.898Z,4.80
2023-06-02T17:32:52.695Z,5.00
2023-06-02T17:35:19.362Z,5.10
2023-06-02T17:37:46.146Z,5.20
2023-06-02T17:40:12.896Z,5.70
2023-06-02T17:42:41.298Z,5.20
2023-06-02T17:45:08.501Z,4.40
2023-06-02T17:47:35.450Z,5.00
2023-06-02T17:50:02.219Z,5.00
2023-06-02T17:52:29.174Z,4.80
2023-06-02T17:54:56.532Z,4.80
2023-06-02T17:57:23.391Z,5.20
2023-06-02T17:59:52.009Z,5.30
2023-06-02T18:02:19.589Z,4.90
2023-06-02T18:04:47.989Z,5.30
2023-06-02T18:07:14.844Z,5.20
2023-06-02T18:09:41.765Z,5.50
2023-06-02T18:12:09.664Z,5.10
2023-06-02T18:14:36.682Z,5.20
2023-06-02T18:17:04.185Z,5.10
2023-06-02T18:19:31.299Z,5.20
2023-06-02T18:21:58.551Z,5.50
2023-06-02T18:24:25.379Z,5.20
2023-06-02T18:26:52.463Z,4.90
2023-06-02T18:29:19.258Z,5.70
2023-06-02T18:31:46.488Z,5.60
2023-06-02T18:34:13.387Z,5.70
2023-06-02T18:36:40.128Z,5.30
2023-06-02T18:39:07.080Z,5.30
2023-06-02T18:41:34.561Z,6.30
2023-06-02T18:44:01.576Z,5.60
2023-06-02T18:46:29.119Z,4.60
2023-06-02T18:48:56.057Z,5.20
2023-06-02T18:51:22.802Z,4.90
2023-06-02T18:53:49.680Z,5.00
2023-06-02T18:56:16.431Z,5.80
2023-06-02T18:58:43.174Z,4.50
2023-06-02T19:01:10.090Z,5.60
2023-06-02T19:03:37.096Z,5.30
2023-06-02T19:06:06.348Z,5.70
2023-06-02T19:08:33.619Z,5.40
2023-06-02T19:11:00.449Z,5.30
2023-06-02T19:13:27.260Z,5.60
2023-06-02T19:15:53.993Z,6.00
2023-06-02T19:18:20.863Z,5.20
2023-06-02T19:20:47.617Z,5.10
2023-06-02T19:23:14.497Z,5.80
2023-06-02T19:25:41.358Z,4.70
2023-06-02T19:28:08.162Z,5.20
2023-06-02T19:30:35.012Z,4.50
2023-06-02T19:33:03.082Z,4.80
2023-06-02T19:35:29.973Z,5.00
2023-06-02T19:38:15.439Z,5.60
2023-06-02T19:40:42.119Z,5.60
2023-06-02T19:43:08.873Z,5.90
2023-06-02T19:45:36.314Z,5.00
2023-06-02T19:48:03.772Z,5.20
2023-06-02T19:50:30.544Z,3.40
2023-06-02T19:52:57.280Z,4.90
2023-06-02T19:55:26.607Z,3.40
2023-06-02T19:57:54.432Z,3.50
2023-06-02T20:00:21.313Z,2.80
2023-06-02T20:02:48.353Z,2.80
2023-06-02T20:05:15.373Z,2.60
2023-06-02T20:07:43.068Z,2.30
2023-06-02T20:10:11.353Z,2.40
2023-06-02T20:12:38.602Z,2.40
2023-06-02T20:15:06.695Z,2.00
2023-06-02T20:17:33.548Z,2.30
2023-06-02T20:20:00.596Z,2.10
2023-06-02T20:22:27.650Z,2.30
2023-06-02T20:24:55.480Z,1.90
2023-06-02T20:27:22.349Z,1.50
2023-06-02T20:29:49.099Z,2.20
2023-06-02T20:36:16.508Z,2.80
2023-06-02T20:38:45.169Z,2.10
2023-06-02T20:41:16.980Z,2.60
2023-06-02T20:46:10.911Z,3.20
2023-06-02T20:48:38.313Z,2.90
2023-06-02T20:51:05.149Z,2.60
2023-06-02T20:53:31.956Z,3.10
2023-06-02T20:55:59.158Z,3.30
2023-06-02T20:58:25.920Z,2.90
2023-06-02T21:00:53.853Z,3.60
2023-06-02T21:03:20.683Z,2.90
2023-06-02T21:05:47.541Z,2.90
2023-06-02T21:08:14.285Z,3.30
2023-06-02T21:10:41.102Z,3.10
2023-06-02T21:13:07.875Z,3.30
2023-06-02T21:15:36.522Z,3.40
2023-06-02T21:18:04.306Z,2.90
2023-06-02T21:20:32.405Z,3.00
2023-06-02T21:22:59.287Z,2.90
2023-06-02T21:25:26.099Z,3.30
2023-06-02T21:27:52.947Z,3.50
2023-06-02T21:30:21.925Z,3.00
2023-06-02T21:32:49.177Z,3.60
2023-06-02T21:35:17.561Z,3.70
2023-06-02T21:37:45.518Z,3.90
2023-06-02T21:40:12.460Z,3.20
2023-06-02T21:42:39.189Z,3.40
2023-06-02T21:45:06.982Z,3.80
2023-06-02T21:47:34.967Z,3.40
2023-06-02T21:50:01.877Z,3.90
2023-06-02T21:52:28.704Z,3.60
2023-06-02T21:54:55.657Z,3.80
2023-06-02T21:57:23.537Z,3.10
2023-06-02T21:59:50.827Z,2.80
2023-06-02T22:02:19.436Z,3.20
2023-06-02T22:04:46.951Z,3.10
2023-06-02T22:07:13.848Z,3.00
2023-06-02T22:09:41.204Z,2.80
2023-06-02T22:12:08.553Z,2.80
2023-06-02T22:14:36.428Z,2.90
2023-06-02T22:17:03.152Z,2.80
2023-06-02T22:19:30.019Z,2.60
2023-06-02T22:21:56.759Z,2.40
2023-06-02T22:24:27.867Z,2.80
2023-06-02T22:29:23.388Z,3.00
2023-06-02T22:31:50.764Z,2.70
2023-06-02T22:34:18.246Z,2.30
2023-06-02T22:36:46.067Z,2.50
2023-06-02T22:39:12.823Z,2.20
2023-06-02T22:41:39.531Z,2.70
2023-06-02T22:44:06.251Z,2.30
2023-06-02T22:46:33.036Z,2.20
2023-06-02T22:48:59.781Z,2.00
2023-06-02T22:51:26.593Z,2.20
2023-06-02T22:53:53.322Z,2.00
2023-06-02T22:56:20.058Z,2.20
2023-06-02T22:58:46.845Z,2.30
2023-06-02T23:01:13.681Z,2.00
2023-06-02T23:03:40.514Z,1.90
2023-06-02T23:06:08.580Z,2.20
2023-06-02T23:08:37.113Z,2.00
2023-06-02T23:11:04.447Z,2.40
2023-06-02T23:13:31.407Z,2.30
2023-06-02T23:15:58.074Z,2.10
2023-06-02T23:18:24.815Z,1.70
2023-06-02T23:20:51.623Z,2.00
2023-06-02T23:23:18.510Z,1.70
2023-06-02T23:25:45.369Z,2.10
2023-06-02T23:28:12.470Z,2.10
2023-06-02T23:30:39.250Z,2.10
2023-06-02T23:33:06.601Z,2.50
2023-06-02T23:35:33.509Z,2.20
2023-06-02T23:38:00.472Z,2.20
2023-06-02T23:40:27.275Z,1.90
2023-06-02T23:43:07.860Z,1.90
2023-06-02T23:45:34.873Z,1.70
2023-06-02T23:48:03.650Z,1.90
2023-06-02T23:50:30.782Z,2.10
2023-06-02T23:52:57.478Z,2.00
2023-06-02T23:55:24.332Z,1.80
2023-06-02T23:57:51.192Z,1.90
